Deaver, Wyoming
Current Conditions -  °F | °C
As of 2:15 PM on Tuesday 21 Oct 2014 (Local Time) from KU68 Reporting Station
Clear Clear  
Wind Chill: 64°   Ceiling: Unl
Heat Index: 64°   Visibility: 10mi
Dew Point: 36°   Wind: 0mph
Humidity: 34%   Direction: NA
Pressure: 29.74"   Gusts: NA
Location:  44.89°N, 108.6°W
Report Text: KU68 212015Z AUTO 00000KT 10SM CLR 18/02 A2974 RMK AO2 PWINO
Loading
Personal Weather Stations






























Interactive Weather Map
Tropical Storm Tracking
New forecast layout! Learn more

10-Day Weather Forecast

Advertisements
Track Severe Weather on mobile